Time;durP1;ratioP1;P1;durP2;ratioP2;P2;SDS_P1;SDS_P2;PMS_P1;PMS_P2;Temp;Humidity;BMP_temperature;BMP_pressure;BME280_temperature;BME280_humidity;BME280_pressure;Samples;Min_cycle;Max_cycle;Signal;HPM_P1;HPM_P2
2021/04/17 00:01:51;;;;;;;11.70;5.68;;;2.80;86.20;;;;;;5083944;28;20043;-82
2021/04/17 00:04:18;;;;;;;12.05;5.30;;;2.80;86.30;;;;;;5079668;28;20059;-80
2021/04/17 00:06:45;;;;;;;12.55;4.82;;;2.80;86.40;;;;;;5063001;28;20044;-84
2021/04/17 00:09:15;;;;;;;9.55;5.30;;;2.80;86.50;;;;;;5061568;28;20040;-80
2021/04/17 00:11:44;;;;;;;16.83;6.57;;;2.80;86.60;;;;;;5068341;28;20036;-80
2021/04/17 00:14:17;;;;;;;19.20;5.97;;;2.70;86.80;;;;;;5048550;28;20071;-80
2021/04/17 00:16:42;;;;;;;;;;;2.70;87.20;;;;;;5065980;28;20039;-82
2021/04/17 00:19:08;;;;;;;15.13;5.40;;;2.70;87.20;;;;;;5060294;28;19920;-79
2021/04/17 00:21:34;;;;;;;16.77;5.97;;;2.70;86.80;;;;;;5066426;28;20047;-81
2021/04/17 00:24:00;;;;;;;12.23;5.78;;;2.60;86.80;;;;;;5064119;28;20344;-80
2021/04/17 00:26:26;;;;;;;13.82;5.32;;;2.60;86.90;;;;;;5041669;28;20040;-80
2021/04/17 00:28:52;;;;;;;9.95;4.78;;;2.60;87.10;;;;;;5064166;28;20036;-81
2021/04/17 00:31:19;;;;;;;10.52;5.22;;;2.60;87.10;;;;;;5068603;28;20509;-80
2021/04/17 00:33:45;;;;;;;12.13;5.18;;;2.50;87.30;;;;;;5079199;28;20044;-80
2021/04/17 00:36:11;;;;;;;11.13;5.00;;;2.50;87.10;;;;;;5071014;28;20479;-81
2021/04/17 00:38:37;;;;;;;15.15;5.63;;;2.40;87.20;;;;;;5061648;28;20036;-81
2021/04/17 00:41:03;;;;;;;14.32;5.78;;;2.40;87.50;;;;;;5061752;28;20060;-80
2021/04/17 00:43:29;;;;;;;14.98;5.28;;;2.40;87.70;;;;;;5067458;28;20406;-80
2021/04/17 00:45:55;;;;;;;18.13;5.32;;;2.30;87.80;;;;;;5049014;28;20043;-80
2021/04/17 00:48:23;;;;;;;10.30;4.75;;;2.30;87.90;;;;;;5061891;28;20039;-81
2021/04/17 00:50:49;;;;;;;18.45;5.68;;;2.20;87.80;;;;;;5066407;28;20084;-80
2021/04/17 00:53:15;;;;;;;10.27;5.38;;;2.20;88.00;;;;;;5067882;28;20040;-80
2021/04/17 00:55:42;;;;;;;11.77;5.57;;;2.30;88.30;;;;;;5060248;28;20103;-81
2021/04/17 00:58:08;;;;;;;14.93;5.80;;;2.20;88.20;;;;;;5068766;28;20121;-80
2021/04/17 01:00:37;;;;;;;11.95;5.20;;;2.20;88.40;;;;;;5072975;28;20135;-79
2021/04/17 01:03:24;;;;;;;14.00;5.18;;;2.20;88.30;;;;;;5074360;28;20032;-79
2021/04/17 01:05:55;;;;;;;11.35;5.07;;;2.20;88.30;;;;;;5070568;28;20037;-80
2021/04/17 01:08:37;;;;;;;10.70;5.40;;;2.10;88.30;;;;;;5061147;28;20036;-81
2021/04/17 01:11:10;;;;;;;12.00;6.00;;;2.10;88.50;;;;;;5058781;28;20128;-79
2021/04/17 01:13:37;;;;;;;11.68;4.55;;;2.10;88.50;;;;;;5058152;28;20404;-80
2021/04/17 01:16:04;;;;;;;14.57;5.30;;;2.10;88.50;;;;;;5061402;28;20051;-80
2021/04/17 01:18:32;;;;;;;15.15;5.15;;;2.00;88.50;;;;;;5069214;28;20029;-80
2021/04/17 01:20:58;;;;;;;11.05;5.18;;;2.00;88.70;;;;;;5062880;28;20036;-80
2021/04/17 01:23:27;;;;;;;16.25;5.55;;;2.00;88.80;;;;;;5073128;28;20032;-80
2021/04/17 01:26:15;;;;;;;16.63;5.10;;;2.00;88.70;;;;;;5080700;28;20095;-79
2021/04/17 01:28:51;;;;;;;11.48;4.63;;;2.00;88.90;;;;;;5077809;28;20024;-79
2021/04/17 01:31:21;;;;;;;14.25;5.25;;;1.90;88.70;;;;;;5080842;28;20043;-79
2021/04/17 01:33:50;;;;;;;9.70;4.30;;;1.90;88.70;;;;;;5068715;28;20032;-79
2021/04/17 01:36:17;;;;;;;11.63;4.97;;;1.80;88.70;;;;;;5067482;28;20173;-79
2021/04/17 01:39:05;;;;;;;11.77;4.57;;;1.80;88.70;;;;;;5063557;28;20578;-79
2021/04/17 01:41:34;;;;;;;17.17;4.97;;;1.70;88.80;;;;;;5066528;28;20036;-79
2021/04/17 01:44:03;;;;;;;16.33;5.65;;;1.70;88.70;;;;;;5063904;28;21437;-79
2021/04/17 01:46:33;;;;;;;11.73;5.00;;;1.60;88.90;;;;;;5067147;28;20063;-80
2021/04/17 01:49:04;;;;;;;10.48;5.30;;;1.60;89.10;;;;;;5067927;28;20043;-81
2021/04/17 01:51:32;;;;;;;15.05;5.40;;;1.70;89.20;;;;;;5062269;28;20071;-79
2021/04/17 01:54:01;;;;;;;12.73;5.68;;;1.60;89.00;;;;;;5072281;28;20036;-79
2021/04/17 01:56:30;;;;;;;10.75;5.30;;;1.60;89.10;;;;;;5070763;28;20349;-81
2021/04/17 01:58:58;;;;;;;11.10;5.25;;;1.60;89.20;;;;;;5081425;28;20027;-79
2021/04/17 02:01:24;;;;;;;21.95;6.00;;;1.60;89.20;;;;;;5064762;28;20049;-79
2021/04/17 02:03:50;;;;;;;9.73;4.85;;;1.60;89.40;;;;;;5068206;28;20056;-79
2021/04/17 02:06:16;;;;;;;11.80;5.20;;;1.60;89.30;;;;;;5068953;28;20044;-79
2021/04/17 02:08:42;;;;;;;12.98;5.88;;;1.60;89.30;;;;;;5062881;28;20060;-80
2021/04/17 02:11:09;;;;;;;24.33;8.43;;;1.60;89.40;;;;;;5062092;28;20407;-80
2021/04/17 02:13:37;;;;;;;9.55;4.93;;;1.60;89.50;;;;;;5060798;28;20032;-79
2021/04/17 02:16:12;;;;;;;9.60;5.55;;;1.60;89.80;;;;;;5086972;28;20028;-81
2021/04/17 02:18:59;;;;;;;12.50;5.95;;;1.50;89.90;;;;;;5082733;28;20490;-80
2021/04/17 02:21:33;;;;;;;11.88;5.50;;;1.50;89.80;;;;;;5080733;28;21816;-80
2021/04/17 02:24:00;;;;;;;13.05;5.68;;;1.50;89.70;;;;;;5070296;28;20771;-80
2021/04/17 02:26:26;;;;;;;14.15;5.28;;;1.40;89.70;;;;;;5070472;28;20382;-79
2021/04/17 02:28:56;;;;;;;20.20;6.25;;;1.40;89.70;;;;;;5050503;28;20036;-81
2021/04/17 02:31:24;;;;;;;11.82;5.63;;;1.50;89.80;;;;;;5073511;28;20177;-79
2021/04/17 02:33:50;;;;;;;16.00;5.70;;;1.40;89.70;;;;;;5061890;28;20031;-80
2021/04/17 02:36:15;;;;;;;13.75;6.05;;;1.50;90.00;;;;;;5069176;28;20040;-80
2021/04/17 02:38:41;;;;;;;13.35;5.80;;;1.40;89.90;;;;;;5046414;28;20049;-81
2021/04/17 02:41:07;;;;;;;19.17;8.65;;;1.50;90.10;;;;;;5075029;28;20040;-80
2021/04/17 02:43:33;;;;;;;15.52;5.95;;;1.40;90.10;;;;;;5064675;28;20405;-79
2021/04/17 02:45:59;;;;;;;11.85;6.00;;;1.40;90.20;;;;;;5069323;28;20028;-81
2021/04/17 02:48:24;;;;;;;17.48;6.68;;;1.40;90.20;;;;;;5049903;28;20558;-80
2021/04/17 02:50:50;;;;;;;17.90;6.60;;;1.50;90.40;;;;;;5032244;28;20552;-81
2021/04/17 02:53:16;;;;;;;17.55;7.38;;;1.50;90.50;;;;;;5069785;28;20538;-79
2021/04/17 02:55:42;;;;;;;17.98;7.60;;;1.60;90.50;;;;;;5064260;28;20685;-79
2021/04/17 02:58:08;;;;;;;15.95;7.15;;;1.60;90.50;;;;;;5063049;28;20028;-80
2021/04/17 03:00:33;;;;;;;14.63;6.63;;;1.60;90.60;;;;;;5049579;28;20095;-80
2021/04/17 03:02:59;;;;;;;14.95;6.57;;;1.60;90.70;;;;;;5067744;28;20039;-81
2021/04/17 03:05:25;;;;;;;19.27;7.78;;;1.70;90.60;;;;;;5082281;28;20040;-80
2021/04/17 03:07:51;;;;;;;14.73;6.22;;;1.70;90.70;;;;;;5050619;28;20035;-80
2021/04/17 03:10:17;;;;;;;13.80;6.03;;;1.70;90.70;;;;;;5063501;28;20115;-80
2021/04/17 03:12:43;;;;;;;18.05;6.72;;;1.70;90.80;;;;;;5065361;28;20032;-80
2021/04/17 03:15:10;;;;;;;11.88;6.68;;;1.70;90.90;;;;;;5048281;28;20835;-80
2021/04/17 03:17:37;;;;;;;18.65;6.20;;;1.80;91.10;;;;;;5069965;28;20036;-84
2021/04/17 03:20:06;;;;;;;20.65;7.57;;;1.80;91.20;;;;;;5066639;28;20074;-85
2021/04/17 03:22:32;;;;;;;16.58;6.07;;;1.80;91.10;;;;;;5065678;28;20555;-82
2021/04/17 03:24:58;;;;;;;7.50;5.35;;;1.90;91.10;;;;;;5070984;28;20029;-80
2021/04/17 03:27:24;;;;;;;12.20;4.43;;;1.90;91.10;;;;;;5064003;28;20032;-80
2021/04/17 03:29:50;;;;;;;12.10;5.50;;;1.90;91.00;;;;;;5089941;28;20024;-80
2021/04/17 03:32:15;;;;;;;15.88;5.93;;;1.80;90.90;;;;;;5078238;28;20036;-79
2021/04/17 03:34:41;;;;;;;14.90;7.22;;;1.80;90.90;;;;;;5081061;28;20043;-82
2021/04/17 03:37:08;;;;;;;15.15;6.30;;;1.80;91.00;;;;;;5087505;28;20024;-82
2021/04/17 03:39:33;;;;;;;15.50;5.32;;;1.90;91.30;;;;;;5049618;28;20036;-82
2021/04/17 03:42:00;;;;;;;14.18;5.10;;;1.80;91.30;;;;;;5072733;28;20036;-79
2021/04/17 03:44:25;;;;;;;19.48;6.47;;;1.80;91.30;;;;;;5053283;28;20043;-82
2021/04/17 03:46:51;;;;;;;10.15;4.47;;;1.80;91.30;;;;;;5067870;28;20036;-80
2021/04/17 03:49:17;;;;;;;9.85;3.97;;;1.80;91.40;;;;;;5048565;28;20398;-80
2021/04/17 03:51:43;;;;;;;7.63;3.38;;;1.80;91.30;;;;;;5049179;28;20079;-81
2021/04/17 03:54:09;;;;;;;18.40;4.90;;;1.80;91.20;;;;;;5061563;28;20048;-82
2021/04/17 03:56:34;;;;;;;8.95;4.40;;;1.70;91.20;;;;;;5083779;28;20044;-82
2021/04/17 03:59:00;;;;;;;10.30;3.50;;;1.70;91.10;;;;;;5078208;28;20352;-82
2021/04/17 04:01:26;;;;;;;14.75;4.20;;;1.70;91.10;;;;;;5087095;28;20070;-80
2021/04/17 04:03:52;;;;;;;17.95;5.20;;;1.60;91.10;;;;;;5060809;28;20561;-81
2021/04/17 04:06:19;;;;;;;12.95;4.80;;;1.70;91.20;;;;;;5065326;28;20494;-79
2021/04/17 04:08:45;;;;;;;8.30;4.00;;;1.50;91.20;;;;;;5060312;28;20299;-80
2021/04/17 04:11:11;;;;;;;8.65;4.40;;;1.50;91.20;;;;;;5041543;28;20036;-84
2021/04/17 04:13:37;;;;;;;18.33;6.43;;;1.60;91.20;;;;;;5049068;28;20037;-79
2021/04/17 04:16:03;;;;;;;14.98;4.10;;;1.50;91.30;;;;;;5052076;28;20079;-80
2021/04/17 04:18:29;;;;;;;9.90;4.10;;;1.50;91.40;;;;;;5044742;28;20487;-81
2021/04/17 04:20:54;;;;;;;13.07;4.57;;;1.50;91.30;;;;;;5054005;28;20065;-79
2021/04/17 04:23:20;;;;;;;11.75;4.45;;;1.50;91.30;;;;;;5069473;28;20047;-83
2021/04/17 04:25:46;;;;;;;11.48;4.35;;;1.40;91.20;;;;;;5073954;28;20028;-83
2021/04/17 04:28:12;;;;;;;13.60;6.00;;;1.40;91.20;;;;;;5047150;28;20032;-79
2021/04/17 04:30:38;;;;;;;11.82;4.80;;;1.40;91.20;;;;;;5050885;28;20037;-81
2021/04/17 04:33:04;;;;;;;13.93;4.38;;;1.40;91.30;;;;;;5066158;28;20040;-82
2021/04/17 04:35:30;;;;;;;9.75;5.20;;;1.40;91.30;;;;;;5048661;28;20040;-80
2021/04/17 04:37:56;;;;;;;16.70;6.35;;;1.50;91.40;;;;;;5062051;28;20051;-84
2021/04/17 04:40:21;;;;;;;12.35;5.55;;;1.30;91.30;;;;;;5065831;28;20040;-84
2021/04/17 04:42:47;;;;;;;17.35;4.68;;;1.30;91.30;;;;;;5064720;28;20336;-81
2021/04/17 04:45:13;;;;;;;16.38;6.85;;;1.30;91.40;;;;;;5063902;28;20070;-84
2021/04/17 04:47:39;;;;;;;12.98;5.80;;;1.30;91.40;;;;;;5055028;28;20040;-84
2021/04/17 04:50:07;;;;;;;14.45;4.80;;;1.40;91.50;;;;;;5061091;28;20543;-80
2021/04/17 04:52:33;;;;;;;15.10;5.93;;;1.40;91.50;;;;;;5060466;28;20340;-80
2021/04/17 04:54:59;;;;;;;18.75;5.90;;;1.40;91.50;;;;;;5079105;28;20038;-83
2021/04/17 04:57:25;;;;;;;9.98;4.95;;;1.40;91.50;;;;;;5081506;28;20382;-80
2021/04/17 04:59:51;;;;;;;18.23;5.93;;;1.40;91.50;;;;;;5083812;28;20367;-80
2021/04/17 05:02:17;;;;;;;12.15;5.78;;;1.40;91.50;;;;;;5064271;28;20346;-81
2021/04/17 05:04:43;;;;;;;14.05;6.15;;;1.50;91.50;;;;;;5063358;28;20417;-81
2021/04/17 05:07:09;;;;;;;18.73;7.20;;;1.40;91.50;;;;;;5049104;28;20086;-83
2021/04/17 05:09:35;;;;;;;14.18;6.28;;;1.40;91.70;;;;;;5061076;28;20028;-83
2021/04/17 05:12:00;;;;;;;13.25;6.18;;;1.50;91.80;;;;;;5050884;28;20024;-82
2021/04/17 05:14:27;;;;;;;14.88;4.97;;;1.50;91.70;;;;;;5064577;28;20072;-80
2021/04/17 05:16:52;;;;;;;12.02;5.25;;;1.50;91.70;;;;;;5081783;28;20106;-81
2021/04/17 05:19:18;;;;;;;10.13;4.45;;;1.60;91.80;;;;;;5074879;28;20451;-81
2021/04/17 05:21:44;;;;;;;15.38;6.28;;;1.60;91.70;;;;;;5064563;28;20312;-81
2021/04/17 05:24:10;;;;;;;15.00;5.55;;;1.70;91.70;;;;;;5068036;28;20033;-81
2021/04/17 05:26:36;;;;;;;16.63;5.35;;;1.70;91.80;;;;;;5069092;28;20028;-82
2021/04/17 05:29:03;;;;;;;17.55;5.50;;;1.80;91.70;;;;;;5056057;28;20411;-82
2021/04/17 05:31:29;;;;;;;19.92;6.82;;;1.80;91.70;;;;;;5072040;28;20035;-85
2021/04/17 05:33:55;;;;;;;19.30;7.18;;;1.80;91.70;;;;;;5062909;28;20043;-80
2021/04/17 05:36:21;;;;;;;17.20;5.80;;;1.90;91.80;;;;;;5084726;28;20379;-83
2021/04/17 05:38:48;;;;;;;30.67;7.35;;;1.90;91.90;;;;;;5085017;28;20062;-81
2021/04/17 05:41:14;;;;;;;27.02;8.43;;;2.00;92.10;;;;;;5058604;28;20318;-81
2021/04/17 05:43:39;;;;;;;25.00;7.50;;;2.20;92.30;;;;;;5064415;28;20123;-82
2021/04/17 05:46:06;;;;;;;32.35;9.52;;;2.40;92.50;;;;;;5069824;28;20040;-82
2021/04/17 05:48:32;;;;;;;32.00;10.63;;;2.70;92.50;;;;;;5040250;28;20061;-82
2021/04/17 05:50:58;;;;;;;33.40;10.82;;;2.70;92.50;;;;;;5073941;28;20032;-81
2021/04/17 05:53:25;;;;;;;36.25;9.43;;;2.90;92.60;;;;;;5070030;28;20387;-81
2021/04/17 05:55:51;;;;;;;24.02;8.15;;;3.10;92.50;;;;;;5047648;28;20039;-83
2021/04/17 05:58:16;;;;;;;34.10;9.63;;;3.20;92.60;;;;;;5073356;28;20475;-81
2021/04/17 06:00:42;;;;;;;33.90;8.57;;;3.30;92.60;;;;;;5069069;28;20125;-85
2021/04/17 06:03:08;;;;;;;39.55;9.52;;;3.50;92.70;;;;;;5065526;28;20032;-83
2021/04/17 06:05:34;;;;;;;35.08;7.70;;;3.60;92.70;;;;;;5049246;28;20032;-82
2021/04/17 06:07:59;;;;;;;33.72;7.47;;;3.80;92.90;;;;;;5066542;28;20437;-81
2021/04/17 06:10:25;;;;;;;26.65;6.28;;;3.90;92.70;;;;;;5059264;28;20032;-80
2021/04/17 06:12:51;;;;;;;24.85;7.20;;;4.00;92.70;;;;;;5070995;28;20040;-82
2021/04/17 06:15:18;;;;;;;26.02;6.13;;;4.20;92.70;;;;;;5061750;28;20044;-78
2021/04/17 06:17:43;;;;;;;31.65;6.97;;;4.20;92.70;;;;;;5084521;28;20027;-78
2021/04/17 06:20:10;;;;;;;27.25;7.00;;;4.40;92.60;;;;;;5069624;28;20493;-82
2021/04/17 06:22:36;;;;;;;32.30;6.57;;;4.50;92.80;;;;;;5066519;28;20036;-82
2021/04/17 06:25:03;;;;;;;28.80;7.35;;;4.60;92.80;;;;;;5072446;28;20039;-84
2021/04/17 06:27:29;;;;;;;30.05;6.93;;;4.80;92.80;;;;;;5068392;28;20248;-85
2021/04/17 06:29:54;;;;;;;33.47;6.32;;;4.90;92.80;;;;;;5042607;28;20072;-80
2021/04/17 06:32:20;;;;;;;25.80;5.80;;;5.10;92.80;;;;;;5063803;28;20044;-78
2021/04/17 06:34:46;;;;;;;30.25;6.85;;;5.20;92.70;;;;;;5068599;28;20032;-81
2021/04/17 06:37:12;;;;;;;38.50;7.80;;;5.20;92.70;;;;;;5051272;28;20048;-81
2021/04/17 06:39:37;;;;;;;33.72;6.88;;;5.40;92.60;;;;;;5068827;28;20655;-79
2021/04/17 06:42:09;;;;;;;21.40;5.68;;;5.50;92.90;;;;;;5055993;28;20037;-79
2021/04/17 06:44:36;;;;;;;25.88;6.22;;;5.70;92.70;;;;;;5072397;28;20453;-79
2021/04/17 06:47:02;;;;;;;24.77;6.50;;;5.80;92.50;;;;;;5073236;28;20104;-78
2021/04/17 06:49:30;;;;;;;27.00;6.57;;;5.90;92.50;;;;;;5059716;28;20107;-79
2021/04/17 06:51:57;;;;;;;27.38;6.35;;;6.00;92.40;;;;;;5063598;28;20128;-79
2021/04/17 06:54:25;;;;;;;27.23;6.50;;;6.00;92.40;;;;;;5072395;28;20035;-79
2021/04/17 06:56:51;;;;;;;29.55;5.90;;;6.20;92.40;;;;;;5047516;28;20257;-81
2021/04/17 06:59:17;;;;;;;28.05;5.80;;;6.30;92.20;;;;;;5069639;28;20534;-81
2021/04/17 07:01:44;;;;;;;26.98;5.57;;;6.40;92.20;;;;;;5064402;28;20036;-80
2021/04/17 07:04:10;;;;;;;26.15;6.00;;;6.40;92.10;;;;;;5053898;28;20270;-79
2021/04/17 07:06:36;;;;;;;31.73;6.63;;;6.50;92.00;;;;;;5060017;28;20032;-82
2021/04/17 07:09:04;;;;;;;23.50;6.38;;;6.60;92.00;;;;;;5070005;28;20063;-79
2021/04/17 07:11:29;;;;;;;30.60;6.40;;;6.70;91.90;;;;;;5068156;28;21618;-79
2021/04/17 07:14:06;;;;;;;27.95;6.47;;;6.80;91.80;;;;;;5063749;28;20033;-81
2021/04/17 07:16:32;;;;;;;25.25;5.63;;;6.90;91.60;;;;;;5065651;28;20040;-80
2021/04/17 07:18:58;;;;;;;21.75;6.22;;;7.00;91.50;;;;;;5065923;28;20044;-80
2021/04/17 07:21:27;;;;;;;22.02;5.40;;;7.00;91.50;;;;;;5041879;28;20043;-80
2021/04/17 07:23:53;;;;;;;27.95;6.03;;;7.20;91.40;;;;;;5053831;28;20052;-79
2021/04/17 07:26:22;;;;;;;27.02;5.80;;;7.30;91.10;;;;;;5063700;28;20040;-81
2021/04/17 07:28:54;;;;;;;23.35;6.07;;;7.40;91.00;;;;;;5060534;28;20395;-80
2021/04/17 07:31:20;;;;;;;26.63;6.23;;;7.50;90.70;;;;;;5068194;28;20047;-80
2021/04/17 07:33:46;;;;;;;23.35;5.32;;;7.60;90.60;;;;;;5061996;28;20055;-81
2021/04/17 07:36:12;;;;;;;19.45;5.40;;;7.60;90.40;;;;;;5077044;28;20726;-79
2021/04/17 07:38:38;;;;;;;19.13;5.13;;;7.80;90.30;;;;;;5076066;28;20032;-79
2021/04/17 07:41:18;;;;;;;23.38;5.22;;;7.80;90.00;;;;;;5070481;28;20110;-82
2021/04/17 07:44:00;;;;;;;23.58;5.05;;;7.90;89.80;;;;;;5066881;28;20041;-80
2021/04/17 07:46:28;;;;;;;22.20;5.03;;;8.00;89.50;;;;;;5065459;28;20477;-81
2021/04/17 07:49:09;;;;;;;18.48;4.57;;;8.10;88.80;;;;;;5072209;28;20062;-83
2021/04/17 07:51:59;;;;;;;19.65;5.38;;;8.20;88.40;;;;;;5060085;28;20072;-79
2021/04/17 07:54:26;;;;;;;16.95;4.70;;;8.30;88.00;;;;;;5081496;28;20095;-83
2021/04/17 07:56:51;;;;;;;21.92;5.15;;;8.40;87.60;;;;;;5048383;28;20032;-80
2021/04/17 07:59:23;;;;;;;19.17;5.35;;;8.50;87.60;;;;;;5080950;28;20290;-81
2021/04/17 08:01:50;;;;;;;19.67;5.28;;;8.60;87.00;;;;;;5050349;28;20040;-82
2021/04/17 08:04:27;;;;;;;16.30;4.85;;;8.70;87.30;;;;;;5049520;28;20094;-80
2021/04/17 08:06:55;;;;;;;17.45;5.00;;;8.70;86.40;;;;;;5060873;28;20043;-80
2021/04/17 08:09:22;;;;;;;23.00;5.93;;;8.80;85.70;;;;;;5043898;28;20511;-80
2021/04/17 08:11:56;;;;;;;27.58;6.22;;;8.90;85.40;;;;;;5065914;28;20054;-81
2021/04/17 08:14:24;;;;;;;19.45;5.45;;;8.90;84.80;;;;;;5063341;28;20036;-81
2021/04/17 08:16:52;;;;;;;18.02;4.78;;;9.00;84.30;;;;;;5060245;28;20047;-81
2021/04/17 08:19:19;;;;;;;17.30;5.72;;;9.00;84.10;;;;;;5085049;28;20056;-81
2021/04/17 08:21:46;;;;;;;21.45;5.50;;;9.00;83.80;;;;;;5055843;28;20123;-82
2021/04/17 08:24:13;;;;;;;20.70;4.97;;;9.10;84.10;;;;;;5078191;28;20221;-80
2021/04/17 08:26:40;;;;;;;20.42;4.93;;;9.20;84.00;;;;;;5067874;28;20058;-81
2021/04/17 08:29:06;;;;;;;17.92;4.95;;;9.30;83.60;;;;;;5050655;28;20300;-81
2021/04/17 08:31:34;;;;;;;23.70;5.75;;;9.40;83.40;;;;;;5051778;28;20042;-80
2021/04/17 08:34:06;;;;;;;21.17;5.55;;;9.50;83.10;;;;;;5087915;28;20029;-81
2021/04/17 08:36:33;;;;;;;21.52;5.10;;;9.60;83.00;;;;;;5065749;28;20494;-81
2021/04/17 08:38:59;;;;;;;14.55;4.68;;;9.60;82.80;;;;;;5065800;28;20077;-81
2021/04/17 08:41:43;;;;;;;14.85;4.38;;;9.70;82.40;;;;;;5068536;28;20495;-81
2021/04/17 08:44:53;;;;;;;16.45;4.63;;;9.90;81.20;;;;;;5065045;28;20032;-82
2021/04/17 08:47:52;;;;;;;15.40;4.53;;;10.10;80.90;;;;;;5070205;28;20049;-80
2021/04/17 08:50:31;;;;;;;13.43;4.18;;;10.20;79.70;;;;;;5060288;28;20044;-86
2021/04/17 08:53:11;;;;;;;13.32;4.32;;;10.30;79.40;;;;;;5070097;28;20040;-81
2021/04/17 08:55:37;;;;;;;15.90;4.57;;;10.30;78.60;;;;;;5080969;28;20057;-82
2021/04/17 08:58:19;;;;;;;16.38;4.38;;;10.40;78.60;;;;;;5080134;28;20791;-81
2021/04/17 09:00:51;;;;;;;14.95;5.15;;;10.40;76.20;;;;;;5066087;28;20036;-81
2021/04/17 09:03:43;;;;;;;13.17;4.10;;;10.50;76.80;;;;;;5071840;28;20032;-82
2021/04/17 09:06:29;;;;;;;12.75;3.90;;;10.60;76.50;;;;;;5063848;28;20032;-82
2021/04/17 09:09:16;;;;;;;15.52;4.18;;;10.60;74.80;;;;;;5075476;28;20032;-80
2021/04/17 09:12:02;;;;;;;15.35;4.63;;;10.70;74.40;;;;;;5071918;28;20090;-81
2021/04/17 09:14:34;;;;;;;14.02;4.05;;;10.80;73.60;;;;;;5073563;28;20027;-81
2021/04/17 09:17:06;;;;;;;11.63;3.80;;;10.80;72.80;;;;;;5075475;28;20040;-81
2021/04/17 09:19:39;;;;;;;13.68;3.60;;;10.80;71.40;;;;;;5073205;28;20032;-81
2021/04/17 09:22:33;;;;;;;9.65;3.55;;;10.80;71.00;;;;;;5065980;28;20123;-83
2021/04/17 09:25:02;;;;;;;11.27;3.70;;;10.90;70.20;;;;;;5072494;28;20410;-82
2021/04/17 09:27:35;;;;;;;11.02;3.90;;;11.00;69.80;;;;;;5069408;28;20142;-82
2021/04/17 09:30:21;;;;;;;13.63;3.80;;;11.00;67.60;;;;;;5065386;28;20029;-81
2021/04/17 09:32:54;;;;;;;10.52;3.90;;;10.90;67.10;;;;;;5069629;28;20328;-83
2021/04/17 09:35:33;;;;;;;;;;;10.90;66.90;;;;;;5070423;28;20047;-83
2021/04/17 09:38:16;;;;;;;14.33;3.43;;;10.90;67.80;;;;;;5069863;28;19916;-81
2021/04/17 09:40:48;;;;;;;14.65;3.65;;;11.10;66.60;;;;;;5070861;28;20298;-81
2021/04/17 09:43:33;;;;;;;11.30;3.73;;;11.10;65.70;;;;;;5064342;28;20474;-81
2021/04/17 09:46:23;;;;;;;11.25;3.75;;;11.10;65.40;;;;;;5067545;28;20352;-81
2021/04/17 09:48:49;;;;;;;10.32;3.25;;;11.10;64.90;;;;;;5076164;28;20033;-83
2021/04/17 09:51:23;;;;;;;11.43;3.85;;;11.00;63.00;;;;;;5054140;28;20040;-81
2021/04/17 09:53:51;;;;;;;13.10;3.55;;;11.00;63.60;;;;;;5067725;28;20048;-81
2021/04/17 09:56:44;;;;;;;28.85;4.15;;;11.10;65.10;;;;;;5071551;28;20079;-82
2021/04/17 09:59:12;;;;;;;;;;;11.40;62.90;;;;;;5056453;28;20040;-82
2021/04/17 10:01:50;;;;;;;21.05;3.10;;;11.40;63.70;;;;;;5065857;28;19920;-81
2021/04/17 10:04:16;;;;;;;11.80;3.08;;;11.40;64.20;;;;;;5072486;28;20070;-81
2021/04/17 10:06:43;;;;;;;12.95;3.80;;;11.30;62.80;;;;;;5073979;28;20036;-83
2021/04/17 10:09:11;;;;;;;11.68;3.63;;;11.40;63.10;;;;;;5071239;28;20052;-81
2021/04/17 10:11:43;;;;;;;8.82;3.13;;;11.40;62.00;;;;;;5074013;28;20444;-83
2021/04/17 10:14:11;;;;;;;5.72;1.90;;;11.40;62.00;;;;;;5075036;28;20036;-82
2021/04/17 10:16:41;;;;;;;8.65;2.90;;;11.50;59.30;;;;;;5081251;28;20068;-81
2021/04/17 10:19:14;;;;;;;8.88;2.72;;;11.60;58.60;;;;;;5079811;28;20405;-82
2021/04/17 10:21:40;;;;;;;5.68;2.13;;;11.60;57.80;;;;;;5094952;28;20127;-82
2021/04/17 10:24:36;;;;;;;9.90;1.98;;;11.60;55.00;;;;;;5049093;28;20028;-82
2021/04/17 10:27:12;;;;;;;4.65;2.20;;;11.60;55.10;;;;;;5037941;28;20040;-81
2021/04/17 10:29:52;;;;;;;7.18;2.40;;;11.60;54.60;;;;;;5054173;28;20050;-82
2021/04/17 10:32:20;;;;;;;8.95;2.45;;;11.60;51.80;;;;;;5071386;28;20048;-82
2021/04/17 10:35:08;;;;;;;10.40;2.67;;;11.50;52.10;;;;;;5067934;28;20059;-83
2021/04/17 10:37:44;;;;;;;10.25;2.38;;;11.50;50.50;;;;;;5067291;28;20047;-82
2021/04/17 10:40:18;;;;;;;14.25;2.55;;;11.50;53.00;;;;;;5074026;28;20028;-83
2021/04/17 10:42:47;;;;;;;7.97;2.35;;;11.60;53.20;;;;;;5069734;28;20043;-82
2021/04/17 10:45:15;;;;;;;8.82;2.53;;;11.70;52.70;;;;;;5071166;28;20032;-82
2021/04/17 10:47:41;;;;;;;11.98;2.92;;;11.70;52.10;;;;;;5070875;28;20121;-83
2021/04/17 10:50:20;;;;;;;4.93;2.70;;;11.80;53.30;;;;;;5054613;28;20636;-83
2021/04/17 10:53:14;;;;;;;8.40;2.58;;;11.90;52.30;;;;;;5072300;28;20043;-82
2021/04/17 10:55:49;;;;;;;6.30;3.10;;;11.90;51.60;;;;;;5083884;28;20097;-82
2021/04/17 10:58:32;;;;;;;9.63;3.10;;;11.90;52.90;;;;;;5087274;28;20119;-82
2021/04/17 11:01:00;;;;;;;13.95;3.20;;;11.90;53.40;;;;;;5067751;28;20170;-83
2021/04/17 11:03:30;;;;;;;7.72;2.90;;;12.00;54.20;;;;;;5072724;28;20376;-83
2021/04/17 11:05:57;;;;;;;6.00;3.13;;;12.10;53.70;;;;;;5070623;28;20037;-82
2021/04/17 11:08:27;;;;;;;7.53;3.28;;;12.20;54.00;;;;;;5065068;28;20040;-86
2021/04/17 11:10:54;;;;;;;6.57;3.15;;;12.20;53.80;;;;;;5059197;28;20434;-82
2021/04/17 11:13:34;;;;;;;6.43;2.80;;;12.30;53.50;;;;;;5041015;28;20064;-82
2021/04/17 11:16:01;;;;;;;6.40;2.60;;;12.40;53.00;;;;;;5067777;28;20024;-82
2021/04/17 11:18:33;;;;;;;11.23;2.40;;;12.50;53.50;;;;;;5082796;28;20542;-82
2021/04/17 11:21:11;;;;;;;6.70;2.90;;;12.60;52.70;;;;;;5064793;28;20036;-83
2021/04/17 11:23:52;;;;;;;8.35;2.85;;;12.60;52.40;;;;;;5067070;28;20122;-81
2021/04/17 11:26:22;;;;;;;9.82;2.75;;;12.70;51.60;;;;;;5073047;28;20036;-81
2021/04/17 11:28:59;;;;;;;5.78;2.65;;;12.80;51.50;;;;;;5080832;28;20032;-81
2021/04/17 11:31:26;;;;;;;7.85;2.70;;;12.90;51.30;;;;;;5076671;28;20086;-83
2021/04/17 11:33:55;;;;;;;9.80;3.22;;;13.00;49.80;;;;;;5083805;28;20040;-82
2021/04/17 11:36:24;;;;;;;5.50;2.45;;;13.00;49.40;;;;;;5069475;28;20150;-81
2021/04/17 11:38:50;;;;;;;6.80;2.83;;;12.90;49.80;;;;;;5068516;28;20171;-81
2021/04/17 11:41:16;;;;;;;11.32;3.17;;;12.70;49.80;;;;;;5070437;28;20206;-83
2021/04/17 11:43:42;;;;;;;7.43;2.80;;;12.50;49.00;;;;;;5048134;28;20119;-82
2021/04/17 11:46:15;;;;;;;7.65;2.50;;;12.30;49.30;;;;;;5073988;28;20410;-82
2021/04/17 11:48:43;;;;;;;10.65;2.95;;;12.30;48.80;;;;;;5081604;28;20196;-85
2021/04/17 11:51:09;;;;;;;10.85;2.63;;;12.10;48.20;;;;;;5086078;28;20066;-82
2021/04/17 11:53:36;;;;;;;7.07;3.00;;;12.00;49.10;;;;;;5069542;28;20591;-82
2021/04/17 11:56:03;;;;;;;10.13;3.13;;;12.10;49.40;;;;;;5062456;28;20039;-82
2021/04/17 11:58:29;;;;;;;8.20;2.63;;;12.20;49.20;;;;;;5068162;28;20391;-83
2021/04/17 12:00:55;;;;;;;7.63;2.45;;;12.30;49.20;;;;;;5068148;28;20029;-84
2021/04/17 12:03:22;;;;;;;8.98;2.65;;;12.40;49.60;;;;;;5054209;28;20032;-82
2021/04/17 12:05:49;;;;;;;6.78;2.72;;;12.50;49.40;;;;;;5067950;28;20231;-82
2021/04/17 12:08:15;;;;;;;7.18;3.10;;;12.60;49.30;;;;;;5056279;28;20040;-82
2021/04/17 12:10:41;;;;;;;10.65;2.65;;;12.60;48.30;;;;;;5063963;28;20025;-83
2021/04/17 12:13:07;;;;;;;7.35;2.70;;;12.40;47.30;;;;;;5066577;28;20041;-82
2021/04/17 12:15:33;;;;;;;7.30;2.40;;;12.30;48.10;;;;;;5062266;28;20040;-83
2021/04/17 12:17:59;;;;;;;10.30;2.45;;;12.40;48.40;;;;;;5065842;28;20044;-84
2021/04/17 12:20:25;;;;;;;10.15;2.58;;;12.60;49.60;;;;;;5063474;28;20032;-83
2021/04/17 12:22:51;;;;;;;7.70;2.60;;;12.90;49.70;;;;;;5062792;28;20040;-82
2021/04/17 12:25:18;;;;;;;10.48;2.95;;;13.20;49.20;;;;;;5067233;28;20402;-84
2021/04/17 12:27:50;;;;;;;8.20;3.00;;;13.30;48.40;;;;;;5054012;28;20028;-84
2021/04/17 12:30:16;;;;;;;7.15;2.70;;;13.50;48.40;;;;;;5071775;28;20131;-83
2021/04/17 12:32:42;;;;;;;6.90;2.67;;;13.60;46.70;;;;;;5054534;28;20039;-83
2021/04/17 12:35:11;;;;;;;9.23;2.47;;;13.80;47.70;;;;;;5063553;28;20115;-81
2021/04/17 12:37:38;;;;;;;6.20;2.50;;;14.10;47.60;;;;;;5045892;28;20036;-80
2021/04/17 12:40:06;;;;;;;9.02;2.50;;;14.30;46.30;;;;;;5062502;28;20039;-81
2021/04/17 12:42:32;;;;;;;9.00;2.40;;;14.40;46.10;;;;;;5028249;28;20051;-80
2021/04/17 12:44:58;;;;;;;8.85;2.60;;;14.40;45.70;;;;;;5065236;28;20534;-81
2021/04/17 12:47:24;;;;;;;6.28;2.38;;;14.30;45.00;;;;;;5070354;28;20035;-80
2021/04/17 12:49:50;;;;;;;7.03;2.20;;;14.30;44.80;;;;;;5062796;28;20083;-81
2021/04/17 12:52:19;;;;;;;5.38;2.63;;;14.30;44.30;;;;;;5066735;28;20399;-83
2021/04/17 12:54:44;;;;;;;6.13;2.40;;;14.40;44.50;;;;;;5071649;28;20115;-80
2021/04/17 12:57:10;;;;;;;7.35;3.10;;;14.50;44.50;;;;;;5068472;28;20116;-83